Nelson Lagoon, Alaska
Current Conditions -  °F | °C
As of 9:56 PM on Thursday 30 Oct 2014 (Local Time) from PAOU Reporting Station
Light Rain Light Rain  
Wind Chill: 29°   Ceiling: Unl
Heat Index: 39°   Visibility: 5mi
Dew Point: 33°   Wind: 21mph
Humidity: 79%   Direction: 120°ESE
Pressure: 29.42"   Gusts: NA
Location:  56°N, 161.2°W
Report Text: PAOU 310556Z AUTO 12018KT 5SM -RA CLR 04/01 A2942 RMK AO2 TSNO 58052 60000 T00380005 10044 20033 RAB10 P0000 PK WND 12026/0535 PRESFR SLP965 $
Loading
Personal Weather Stations






























Interactive Weather Map
Tropical Storm Tracking
New forecast layout! Learn more

10-Day Weather Forecast

Advertisements
Track Severe Weather on mobile